Time;durP1;ratioP1;P1;durP2;ratioP2;P2;SDS_P1;SDS_P2;PMS_P1;PMS_P2;Temp;Humidity;BMP_temperature;BMP_pressure;BME280_temperature;BME280_humidity;BME280_pressure;Samples;Min_cycle;Max_cycle;Signal;HPM_P1;HPM_P2
2021/07/10 00:01:07;;;;;;;5.40;2.47;;;;;;;23.68;47.87;94878.63;2971561;40;20087;-80
2021/07/10 00:03:09;;;;;;;3.88;2.80;;;;;;;23.68;47.41;94877.78;2970761;40;20048;-79
2021/07/10 00:05:13;;;;;;;3.65;2.40;;;;;;;23.54;47.99;94877.25;2961896;40;20061;-80
2021/07/10 00:07:15;;;;;;;6.22;2.60;;;;;;;23.54;47.53;94863.88;2964741;40;20063;-81
2021/07/10 00:09:17;;;;;;;6.90;2.95;;;;;;;23.36;48.40;94858.69;2962031;40;20084;-82
2021/07/10 00:11:19;;;;;;;4.00;2.50;;;;;;;23.33;47.97;94857.28;2969789;40;20056;-79
2021/07/10 00:13:21;;;;;;;5.40;2.97;;;;;;;23.42;48.31;94852.38;2970320;40;20311;-82
2021/07/10 00:15:24;;;;;;;6.75;2.97;;;;;;;23.51;47.78;94865.19;2953999;40;20126;-80
2021/07/10 00:17:26;;;;;;;4.50;2.63;;;;;;;23.46;47.90;94851.69;2966750;40;20041;-80
2021/07/10 00:19:27;;;;;;;4.15;2.80;;;;;;;23.48;47.78;94862.16;2961488;40;20100;-80
2021/07/10 00:21:29;;;;;;;3.60;2.50;;;;;;;23.52;47.78;94864.13;2968308;40;20164;-80
2021/07/10 00:23:32;;;;;;;5.22;2.63;;;;;;;23.61;47.77;94853.06;2967871;40;20072;-81
2021/07/10 00:25:34;;;;;;;3.95;3.00;;;;;;;23.74;47.19;94854.66;2961585;40;20363;-81
2021/07/10 00:27:36;;;;;;;3.45;2.63;;;;;;;23.83;47.04;94853.25;2968633;40;20086;-82
2021/07/10 00:29:38;;;;;;;5.00;2.72;;;;;;;23.88;47.04;94856.03;2963284;40;20063;-81
2021/07/10 00:31:39;;;;;;;5.13;2.70;;;;;;;23.95;46.75;94850.53;2956880;40;20160;-82
2021/07/10 00:33:42;;;;;;;4.63;2.60;;;;;;;23.99;46.43;94847.16;2966772;40;20436;-81
2021/07/10 00:35:44;;;;;;;6.35;2.40;;;;;;;24.01;46.34;94847.72;2969803;40;20079;-80
2021/07/10 00:37:46;;;;;;;5.03;2.53;;;;;;;24.01;46.10;94850.41;2968298;40;20040;-81
2021/07/10 00:39:47;;;;;;;4.45;2.58;;;;;;;23.97;46.09;94851.91;2959259;40;20501;-82
2021/07/10 00:41:49;;;;;;;6.38;2.40;;;;;;;23.96;45.90;94847.59;2968353;40;20098;-82
2021/07/10 00:43:51;;;;;;;5.95;2.50;;;;;;;23.97;45.85;94846.56;2967178;40;20060;-81
2021/07/10 00:45:53;;;;;;;4.72;2.60;;;;;;;23.91;46.10;94845.66;2956301;40;20075;-80
2021/07/10 00:47:55;;;;;;;5.97;2.72;;;;;;;23.88;46.21;94842.66;2966618;40;20048;-81
2021/07/10 00:49:57;;;;;;;5.35;2.15;;;;;;;23.86;45.65;94845.56;2968086;40;20416;-81
2021/07/10 00:51:58;;;;;;;3.55;2.58;;;;;;;23.92;45.64;94835.78;2968178;40;20560;-81
2021/07/10 00:54:00;;;;;;;4.55;2.70;;;;;;;23.96;45.37;94841.44;2969096;40;20145;-79
2021/07/10 00:56:02;;;;;;;3.35;2.33;;;;;;;23.95;45.24;94846.00;2970239;40;20097;-80
2021/07/10 00:58:04;;;;;;;5.72;2.50;;;;;;;23.90;45.11;94832.53;2961567;40;20058;-81
2021/07/10 01:00:09;;;;;;;5.38;2.65;;;;;;;23.86;45.19;94837.53;2966516;40;20163;-82
2021/07/10 01:02:10;;;;;;;3.40;2.70;;;;;;;23.84;44.80;94836.16;2966683;40;20129;-81
2021/07/10 01:04:14;;;;;;;5.72;2.70;;;;;;;23.86;45.09;94826.84;2966731;40;20060;-81
2021/07/10 01:06:16;;;;;;;6.10;2.72;;;;;;;23.91;45.13;94821.56;2966856;40;21421;-80
2021/07/10 01:08:18;;;;;;;4.03;2.40;;;;;;;23.94;44.84;94822.16;2967556;40;20140;-83
2021/07/10 01:10:20;;;;;;;5.65;2.90;;;;;;;23.86;44.49;94821.50;2967224;40;20044;-82
2021/07/10 01:12:21;;;;;;;3.70;2.60;;;;;;;23.87;44.69;94811.59;2965365;40;20201;-85
2021/07/10 01:14:23;;;;;;;5.45;2.95;;;;;;;23.84;44.88;94806.72;2967551;40;20064;-80
2021/07/10 01:16:25;;;;;;;3.78;2.53;;;;;;;23.88;45.10;94813.22;2959535;40;20045;-83
2021/07/10 01:18:27;;;;;;;4.35;2.78;;;;;;;23.89;44.51;94810.28;2970596;40;20103;-83
2021/07/10 01:20:29;;;;;;;8.23;2.90;;;;;;;23.95;44.71;94818.44;2967481;40;20092;-84
2021/07/10 01:22:32;;;;;;;5.65;2.42;;;;;;;23.91;44.72;94826.13;2967424;40;20515;-80
2021/07/10 01:24:34;;;;;;;3.10;2.05;;;;;;;23.85;44.40;94819.03;2967595;40;20072;-82
2021/07/10 01:26:35;;;;;;;4.15;2.70;;;;;;;23.78;44.48;94829.88;2963552;40;20085;-82
2021/07/10 01:28:37;;;;;;;5.90;2.38;;;;;;;23.71;44.41;94827.31;2959988;40;20082;-81
2021/07/10 01:30:39;;;;;;;5.20;2.47;;;;;;;23.28;45.09;94812.56;2961327;40;20425;-69
2021/07/10 01:32:44;;;;;;;6.90;3.38;;;;;;;23.16;45.41;94811.75;2963394;40;20056;-69
2021/07/10 01:34:47;;;;;;;3.58;2.30;;;;;;;23.19;46.04;94803.28;2965265;40;20056;-68
2021/07/10 01:36:49;;;;;;;3.20;2.70;;;;;;;23.29;45.65;94802.66;2958424;40;20053;-69
2021/07/10 01:38:51;;;;;;;7.15;2.95;;;;;;;23.42;45.26;94802.41;2960295;40;20060;-71
2021/07/10 01:40:53;;;;;;;3.50;2.53;;;;;;;23.44;45.21;94797.63;2962861;40;20049;-69
2021/07/10 01:42:55;;;;;;;4.30;2.70;;;;;;;23.52;45.54;94799.94;2960811;40;20053;-68
2021/07/10 01:44:58;;;;;;;3.80;2.80;;;;;;;23.59;44.74;94794.44;2957877;40;20119;-69
2021/07/10 01:47:00;;;;;;;5.67;2.60;;;;;;;23.69;44.65;94799.19;2966692;40;20425;-69
2021/07/10 01:49:01;;;;;;;3.85;2.55;;;;;;;23.76;44.58;94796.41;2967596;40;20291;-69
2021/07/10 01:51:03;;;;;;;4.57;2.72;;;;;;;23.80;44.25;94786.84;2967592;40;20060;-70
2021/07/10 01:53:05;;;;;;;4.18;2.90;;;;;;;23.85;44.52;94784.25;2967818;40;20398;-69
2021/07/10 01:55:09;;;;;;;5.22;2.55;;;;;;;23.90;44.42;94782.50;2965776;40;20056;-69
2021/07/10 01:57:11;;;;;;;4.47;2.63;;;;;;;23.92;44.07;94783.09;2966556;40;20439;-69
2021/07/10 01:59:12;;;;;;;3.13;2.30;;;;;;;23.91;43.81;94788.66;2959597;40;20041;-68
2021/07/10 02:01:14;;;;;;;4.88;2.38;;;;;;;23.90;43.90;94790.53;2967999;40;20509;-69
2021/07/10 02:03:16;;;;;;;4.47;2.70;;;;;;;23.93;44.38;94791.91;2967306;40;20416;-69
2021/07/10 02:05:20;;;;;;;4.57;2.78;;;;;;;23.96;44.27;94794.09;2967800;40;20066;-70
2021/07/10 02:07:21;;;;;;;5.18;2.58;;;;;;;24.00;44.39;94795.25;2958813;40;20217;-70
2021/07/10 02:09:23;;;;;;;4.53;2.75;;;;;;;24.03;44.24;94800.13;2967712;40;20440;-69
2021/07/10 02:11:25;;;;;;;5.28;2.70;;;;;;;24.00;43.79;94800.59;2967512;40;20509;-70
2021/07/10 02:13:27;;;;;;;4.75;2.50;;;;;;;23.97;44.00;94801.09;2962669;40;20062;-69
2021/07/10 02:15:28;;;;;;;3.47;2.72;;;;;;;23.97;43.90;94795.72;2958812;40;20339;-70
2021/07/10 02:17:30;;;;;;;4.15;2.70;;;;;;;23.99;44.43;94806.22;2958933;40;20086;-68
2021/07/10 02:19:33;;;;;;;4.32;2.90;;;;;;;24.01;44.27;94807.59;2961846;40;20109;-70
2021/07/10 02:21:35;;;;;;;3.80;2.80;;;;;;;24.04;44.59;94804.41;2958305;40;20321;-68
2021/07/10 02:23:36;;;;;;;7.03;3.20;;;;;;;24.06;44.12;94807.66;2959553;40;20458;-68
2021/07/10 02:25:38;;;;;;;3.75;2.83;;;;;;;24.05;44.46;94814.09;2967571;40;20421;-70
2021/07/10 02:27:40;;;;;;;3.88;2.97;;;;;;;24.04;44.24;94811.63;2967491;40;20402;-69
2021/07/10 02:29:42;;;;;;;10.68;3.17;;;;;;;24.00;44.40;94808.63;2954091;40;20155;-81
2021/07/10 02:31:44;;;;;;;4.47;2.97;;;;;;;23.95;44.76;94811.22;2968425;40;20137;-80
2021/07/10 02:33:45;;;;;;;7.82;3.13;;;;;;;23.89;45.44;94804.94;2968112;40;20384;-80
2021/07/10 02:35:47;;;;;;;6.50;3.28;;;;;;;23.82;45.85;94814.19;2968314;40;20393;-81
2021/07/10 02:37:49;;;;;;;4.25;3.13;;;;;;;23.78;46.02;94810.34;2958607;40;20097;-80
2021/07/10 02:39:52;;;;;;;5.75;3.40;;;;;;;23.77;46.07;94811.41;2968222;40;20485;-79
2021/07/10 02:41:54;;;;;;;8.37;3.13;;;;;;;23.68;45.84;94809.09;2967952;40;20406;-80
2021/07/10 02:43:56;;;;;;;3.83;2.80;;;;;;;23.21;45.50;94814.56;2956770;40;20068;-80
2021/07/10 02:45:58;;;;;;;3.53;3.10;;;;;;;23.17;46.80;94818.75;2968335;40;20469;-81
2021/07/10 02:48:01;;;;;;;8.05;3.28;;;;;;;23.05;47.31;94818.75;2968003;40;20444;-80
2021/07/10 02:50:07;;;;;;;4.05;3.22;;;;;;;23.08;46.83;94812.94;2968284;40;20088;-79
2021/07/10 02:52:11;;;;;;;8.02;4.15;;;;;;;23.16;47.79;94809.09;2951535;40;20134;-79
2021/07/10 02:54:13;;;;;;;;;;;;;;;23.21;47.29;94811.88;2970091;40;20067;-80
2021/07/10 02:56:14;;;;;;;5.35;3.13;;;;;;;23.23;47.49;94817.81;2968727;40;20276;-79
2021/07/10 02:58:16;;;;;;;4.93;3.17;;;;;;;23.24;47.51;94806.06;2969296;40;20137;-80
2021/07/10 03:00:20;;;;;;;5.65;3.10;;;;;;;23.28;47.82;94811.75;2968643;40;20068;-80
2021/07/10 03:02:22;;;;;;;5.47;3.88;;;;;;;23.34;47.30;94807.31;2965620;40;20326;-80
2021/07/10 03:04:24;;;;;;;5.65;2.92;;;;;;;23.37;47.02;94807.66;2967023;40;20041;-80
2021/07/10 03:06:25;;;;;;;7.32;3.35;;;;;;;23.37;46.91;94802.31;2966257;40;20048;-82
2021/07/10 03:08:27;;;;;;;10.88;3.20;;;;;;;23.38;46.94;94805.78;2969189;40;20332;-81
2021/07/10 03:10:29;;;;;;;4.35;3.10;;;;;;;23.24;47.68;94808.72;2970035;40;20306;-79
2021/07/10 03:12:31;;;;;;;4.45;3.33;;;;;;;23.04;48.25;94810.97;2969108;40;20045;-79
2021/07/10 03:14:33;;;;;;;7.47;3.78;;;;;;;22.93;48.01;94803.75;2969469;40;20096;-79
2021/07/10 03:16:34;;;;;;;5.72;2.88;;;;;;;22.95;48.41;94809.66;2974966;40;20127;-82
2021/07/10 03:18:36;;;;;;;4.70;2.92;;;;;;;22.79;46.96;94816.53;2965196;40;20076;-81
2021/07/10 03:20:38;;;;;;;5.95;3.42;;;;;;;22.36;48.08;94807.78;2967688;40;20081;-79
2021/07/10 03:22:40;;;;;;;3.92;3.03;;;;;;;22.15;48.51;94810.94;2968192;40;20068;-80
2021/07/10 03:24:42;;;;;;;5.13;3.15;;;;;;;22.10;48.74;94811.63;2967313;40;20064;-80
2021/07/10 03:26:43;;;;;;;5.18;3.10;;;;;;;22.08;48.33;94801.19;2968294;40;20068;-83
2021/07/10 03:28:45;;;;;;;5.47;3.30;;;;;;;22.26;47.89;94797.69;2968085;40;20129;-81
2021/07/10 03:30:51;;;;;;;5.47;2.90;;;;;;;22.40;47.80;94798.28;2968347;40;20428;-80
2021/07/10 03:32:53;;;;;;;4.03;3.28;;;;;;;22.54;48.01;94803.38;2967296;40;20092;-82
2021/07/10 03:34:54;;;;;;;6.10;3.17;;;;;;;22.72;48.31;94795.28;2964693;40;20052;-81
2021/07/10 03:36:56;;;;;;;3.58;2.65;;;;;;;22.87;48.08;94792.94;2966157;40;20088;-81
2021/07/10 03:38:58;;;;;;;4.30;3.15;;;;;;;23.01;47.49;94793.53;2970673;40;20408;-82
2021/07/10 03:41:00;;;;;;;3.90;2.85;;;;;;;23.14;47.08;94799.69;2971576;40;20168;-82
2021/07/10 03:43:01;;;;;;;9.60;3.22;;;;;;;23.25;46.68;94805.03;2969226;40;20344;-81
2021/07/10 03:45:09;;;;;;;4.28;3.50;;;;;;;23.36;46.63;94798.03;2968273;40;20306;-82
2021/07/10 03:47:10;;;;;;;6.15;3.22;;;;;;;23.43;46.71;94803.25;2965748;40;20076;-82
2021/07/10 03:49:13;;;;;;;5.05;3.00;;;;;;;23.50;46.45;94814.59;2966707;40;20096;-81
2021/07/10 03:51:15;;;;;;;4.32;3.35;;;;;;;23.60;46.52;94814.81;2961841;40;20294;-82
2021/07/10 03:53:16;;;;;;;5.38;3.58;;;;;;;23.64;46.53;94809.78;2957933;40;20086;-69
2021/07/10 03:55:18;;;;;;;5.38;3.30;;;;;;;23.71;46.72;94816.63;2967671;40;20060;-70
2021/07/10 03:57:20;;;;;;;4.78;3.28;;;;;;;23.79;46.46;94820.00;2966996;40;20088;-70
2021/07/10 03:59:21;;;;;;;8.45;3.67;;;;;;;23.86;46.47;94815.34;2967679;40;20044;-69
2021/07/10 04:01:23;;;;;;;7.50;3.42;;;;;;;23.93;46.69;94805.28;2968129;40;20358;-70
2021/07/10 04:03:26;;;;;;;5.63;3.85;;;;;;;24.00;46.23;94805.13;2967095;40;20140;-69
2021/07/10 04:05:28;;;;;;;8.18;3.20;;;;;;;24.04;45.29;94807.09;2966748;40;20337;-68
2021/07/10 04:07:32;;;;;;;4.50;3.00;;;;;;;24.01;45.19;94812.94;2966790;40;20060;-69
2021/07/10 04:09:34;;;;;;;4.07;3.00;;;;;;;24.00;45.03;94805.94;2966606;40;20118;-69
2021/07/10 04:11:36;;;;;;;4.57;3.00;;;;;;;23.97;44.47;94802.97;2967688;40;20099;-69
2021/07/10 04:13:38;;;;;;;5.10;2.92;;;;;;;23.97;44.64;94798.41;2966500;40;20201;-69
2021/07/10 04:15:40;;;;;;;8.57;3.03;;;;;;;23.95;44.13;94799.72;2967224;40;20056;-69
2021/07/10 04:17:42;;;;;;;5.43;3.20;;;;;;;23.97;44.04;94795.72;2966696;40;20096;-81
2021/07/10 04:19:46;;;;;;;7.20;3.40;;;;;;;24.04;44.07;94803.59;2965532;40;20065;-81
2021/07/10 04:21:47;;;;;;;8.45;3.15;;;;;;;24.04;44.07;94807.09;2967898;40;20137;-81
2021/07/10 04:23:49;;;;;;;7.82;3.58;;;;;;;24.10;44.05;94798.09;2958135;40;20092;-68
2021/07/10 04:25:52;;;;;;;7.43;3.42;;;;;;;24.17;43.85;94802.50;2966469;40;20449;-69
2021/07/10 04:27:54;;;;;;;5.90;2.97;;;;;;;24.25;43.93;94799.44;2958916;40;20065;-69
2021/07/10 04:29:55;;;;;;;6.28;2.63;;;;;;;24.28;43.84;94799.75;2967282;40;20051;-70
2021/07/10 04:31:57;;;;;;;3.80;2.90;;;;;;;24.35;43.42;94796.94;2967728;40;20140;-69
2021/07/10 04:33:59;;;;;;;6.65;3.08;;;;;;;24.40;43.44;94796.19;2966622;40;20152;-69
2021/07/10 04:36:00;;;;;;;4.55;2.95;;;;;;;24.43;43.50;94791.16;2964777;40;20445;-68
2021/07/10 04:38:02;;;;;;;6.18;3.05;;;;;;;24.44;43.19;94794.66;2967435;40;20632;-68
2021/07/10 04:40:05;;;;;;;4.93;2.92;;;;;;;24.39;43.32;94792.69;2964511;40;20430;-70
2021/07/10 04:42:07;;;;;;;4.53;2.88;;;;;;;24.40;42.54;94794.31;2967447;40;20053;-69
2021/07/10 04:44:09;;;;;;;6.07;2.83;;;;;;;24.40;42.87;94797.00;2959252;40;20494;-69
2021/07/10 04:46:11;;;;;;;8.35;3.33;;;;;;;24.41;42.90;94795.94;2975017;40;20143;-69
2021/07/10 04:48:13;;;;;;;4.90;2.70;;;;;;;24.44;43.10;94800.81;2974947;40;20052;-69
2021/07/10 04:50:15;;;;;;;9.77;3.35;;;;;;;24.56;43.08;94797.28;2974644;40;20484;-69
2021/07/10 04:52:17;;;;;;;7.28;2.72;;;;;;;24.57;42.62;94798.91;2974852;40;20406;-69
2021/07/10 04:54:19;;;;;;;7.30;2.70;;;;;;;24.61;42.36;94800.03;2959030;40;20092;-69
2021/07/10 04:56:21;;;;;;;4.90;2.70;;;;;;;24.32;42.81;94805.44;2966751;40;20055;-69
2021/07/10 04:58:23;;;;;;;5.82;3.10;;;;;;;24.19;42.98;94808.41;2966751;40;20094;-67
2021/07/10 05:00:25;;;;;;;12.10;3.65;;;;;;;24.15;43.63;94805.41;2959956;40;20099;-69
2021/07/10 05:02:27;;;;;;;5.15;3.30;;;;;;;23.99;43.83;94812.38;2966409;40;20067;-69
2021/07/10 05:04:29;;;;;;;6.78;3.40;;;;;;;23.95;44.00;94805.06;2965777;40;20167;-68
2021/07/10 05:06:30;;;;;;;6.35;2.95;;;;;;;24.02;43.89;94803.84;2967984;40;20096;-82
2021/07/10 05:08:32;;;;;;;6.13;3.20;;;;;;;24.14;43.49;94800.31;2968182;40;20138;-82
2021/07/10 05:10:35;;;;;;;5.97;3.03;;;;;;;24.29;43.77;94797.91;2968098;40;20145;-81
2021/07/10 05:12:37;;;;;;;7.55;3.13;;;;;;;24.37;43.11;94802.03;2967479;40;20415;-81
2021/07/10 05:14:39;;;;;;;3.88;2.97;;;;;;;24.47;43.53;94803.00;2973316;40;20088;-83
2021/07/10 05:16:40;;;;;;;12.35;3.40;;;;;;;24.61;42.89;94810.72;2968694;40;20118;-83
2021/07/10 05:18:42;;;;;;;8.98;3.25;;;;;;;24.67;42.35;94807.09;2954021;40;20236;-81
2021/07/10 05:20:44;;;;;;;5.95;3.22;;;;;;;24.65;42.68;94801.16;2969837;40;20212;-82
2021/07/10 05:22:46;;;;;;;4.13;2.50;;;;;;;24.69;42.35;94804.97;2967034;40;20052;-81
2021/07/10 05:24:48;;;;;;;5.45;2.92;;;;;;;24.75;42.37;94804.00;2969944;40;20153;-83
2021/07/10 05:26:50;;;;;;;5.60;2.85;;;;;;;24.85;42.50;94808.72;2974109;40;20129;-81
2021/07/10 05:28:52;;;;;;;4.22;2.80;;;;;;;24.71;42.28;94802.88;2975341;40;20077;-81
2021/07/10 05:30:53;;;;;;;4.35;2.80;;;;;;;24.17;42.87;94807.84;2972694;40;20053;-81
2021/07/10 05:32:55;;;;;;;6.65;2.53;;;;;;;24.11;43.35;94812.28;2969999;40;20133;-82
2021/07/10 05:34:57;;;;;;;4.68;2.85;;;;;;;24.20;43.48;94813.53;2970822;40;20067;-81
2021/07/10 05:36:59;;;;;;;6.10;3.28;;;;;;;24.28;43.09;94806.97;2971127;40;20187;-82
2021/07/10 05:39:00;;;;;;;5.50;3.03;;;;;;;24.42;43.22;94808.28;2965041;40;20889;-81
2021/07/10 05:41:03;;;;;;;6.15;2.83;;;;;;;24.62;42.82;94813.19;2966591;40;20321;-83
2021/07/10 05:43:04;;;;;;;4.68;3.05;;;;;;;24.73;42.55;94811.47;2960753;40;20218;-81
2021/07/10 05:45:08;;;;;;;7.32;3.00;;;;;;;24.55;42.50;94809.84;2965095;40;20090;-82
2021/07/10 05:47:09;;;;;;;5.22;3.20;;;;;;;24.43;43.26;94806.41;2963420;40;20073;-84
2021/07/10 05:49:11;;;;;;;4.30;2.80;;;;;;;24.43;42.66;94807.22;2966397;40;20648;-81
2021/07/10 05:51:13;;;;;;;5.18;2.88;;;;;;;24.54;42.48;94810.91;2963217;40;20050;-81
2021/07/10 05:53:15;;;;;;;3.45;2.72;;;;;;;24.69;42.62;94813.00;2970026;40;20062;-80
2021/07/10 05:55:16;;;;;;;5.72;3.10;;;;;;;24.85;42.42;94811.38;2959648;40;20621;-84
2021/07/10 05:57:18;;;;;;;8.25;4.32;;;;;;;25.01;42.08;94809.72;2969673;40;20060;-82
2021/07/10 05:59:20;;;;;;;4.95;3.05;;;;;;;25.08;41.89;94813.88;2969048;40;20382;-81
2021/07/10 06:01:22;;;;;;;4.20;2.83;;;;;;;25.13;41.63;94818.50;2971972;40;20062;-82
2021/07/10 06:03:25;;;;;;;4.30;2.78;;;;;;;25.20;41.78;94812.97;2976532;40;20048;-83
2021/07/10 06:05:27;;;;;;;7.68;3.40;;;;;;;25.20;41.38;94810.28;2971147;40;20125;-71
2021/07/10 06:07:29;;;;;;;5.85;2.88;;;;;;;25.24;41.54;94803.38;2967627;40;20068;-68
2021/07/10 06:09:30;;;;;;;5.03;2.80;;;;;;;25.26;41.25;94814.66;2964355;40;20056;-69
2021/07/10 06:11:32;;;;;;;6.72;3.13;;;;;;;25.17;41.80;94819.63;2967828;40;20381;-70
2021/07/10 06:13:34;;;;;;;4.88;2.70;;;;;;;25.24;41.76;94814.09;2968424;40;20041;-68
2021/07/10 06:15:36;;;;;;;4.97;2.75;;;;;;;25.34;41.69;94814.25;2967740;40;20051;-68
2021/07/10 06:17:39;;;;;;;5.57;2.83;;;;;;;25.48;41.65;94817.34;2967565;40;20059;-70
2021/07/10 06:19:41;;;;;;;7.30;3.13;;;;;;;25.62;41.11;94815.94;2972780;40;20068;-68
2021/07/10 06:21:45;;;;;;;6.68;3.40;;;;;;;25.70;40.88;94815.47;2967765;40;20453;-68
2021/07/10 06:23:47;;;;;;;6.07;2.75;;;;;;;25.83;40.41;94816.16;2968545;40;20555;-69
2021/07/10 06:25:48;;;;;;;5.88;2.70;;;;;;;25.61;40.53;94816.16;2968194;40;20090;-70
2021/07/10 06:27:50;;;;;;;5.63;3.40;;;;;;;25.37;41.19;94818.28;2965456;40;20449;-68
2021/07/10 06:29:52;;;;;;;4.35;2.80;;;;;;;25.38;41.16;94828.75;2967348;40;20049;-69
2021/07/10 06:31:54;;;;;;;13.32;3.40;;;;;;;25.39;40.98;94819.66;2967380;40;20055;-68
2021/07/10 06:33:59;;;;;;;7.82;3.28;;;;;;;25.34;41.17;94824.97;2965700;40;20142;-69
2021/07/10 06:36:01;;;;;;;7.05;3.15;;;;;;;24.87;42.12;94820.00;2965460;40;20049;-70
2021/07/10 06:38:03;;;;;;;4.40;2.80;;;;;;;24.69;42.68;94824.56;2967532;40;20048;-71
2021/07/10 06:40:06;;;;;;;12.02;3.22;;;;;;;24.42;43.56;94816.31;2973738;40;20044;-70
2021/07/10 06:42:08;;;;;;;6.80;3.33;;;;;;;24.35;44.16;94831.72;2959608;40;20160;-69
2021/07/10 06:44:10;;;;;;;7.20;3.10;;;;;;;24.41;43.78;94828.06;2966314;40;20044;-70
2021/07/10 06:46:11;;;;;;;8.55;3.50;;;;;;;24.81;43.53;94821.78;2967546;40;20052;-69
2021/07/10 06:48:13;;;;;;;5.80;2.80;;;;;;;24.88;42.63;94826.97;2966236;40;20053;-68
2021/07/10 06:50:19;;;;;;;6.53;3.63;;;;;;;24.91;42.56;94827.28;2966498;40;20447;-69
2021/07/10 06:52:21;;;;;;;6.10;3.63;;;;;;;24.93;42.83;94822.50;2958725;40;20076;-69
2021/07/10 06:54:23;;;;;;;7.90;3.08;;;;;;;25.17;42.60;94816.94;2953249;40;20145;-69
2021/07/10 06:56:25;;;;;;;62.50;9.50;;;;;;;25.42;42.16;94813.78;2959968;40;20134;-69
2021/07/10 06:58:26;;;;;;;32.83;5.60;;;;;;;25.49;42.02;94824.31;2960041;40;20087;-69
2021/07/10 07:00:28;;;;;;;27.65;4.65;;;;;;;25.52;41.93;94815.81;2959062;40;20060;-69
2021/07/10 07:02:30;;;;;;;27.65;6.65;;;;;;;25.68;42.14;94820.31;2959666;40;20637;-70
2021/07/10 07:04:32;;;;;;;8.30;3.25;;;;;;;25.68;41.43;94814.94;2958752;40;20083;-69
2021/07/10 07:06:34;;;;;;;31.25;6.10;;;;;;;25.81;41.46;94816.38;2959082;40;20044;-70
2021/07/10 07:08:36;;;;;;;26.98;4.80;;;;;;;25.74;41.11;94821.94;2957613;40;20049;-67
2021/07/10 07:10:38;;;;;;;14.35;3.40;;;;;;;25.91;41.35;94819.22;2959176;40;20085;-69
2021/07/10 07:12:40;;;;;;;10.93;3.60;;;;;;;26.00;41.12;94821.47;2959305;40;20149;-69
2021/07/10 07:14:42;;;;;;;13.07;3.90;;;;;;;26.23;40.93;94825.72;2959010;40;20175;-68
2021/07/10 07:16:44;;;;;;;11.80;4.25;;;;;;;26.49;40.80;94819.50;2959011;40;20092;-69
2021/07/10 07:18:46;;;;;;;11.27;3.75;;;;;;;26.63;40.43;94821.78;2958903;40;20056;-68
2021/07/10 07:20:47;;;;;;;8.77;3.50;;;;;;;26.59;40.18;94818.00;2958822;40;20422;-70
2021/07/10 07:22:50;;;;;;;12.10;3.95;;;;;;;26.31;40.72;94819.91;2959430;40;20061;-70
2021/07/10 07:24:52;;;;;;;24.05;4.10;;;;;;;26.45;41.13;94812.22;2958019;40;20184;-70
2021/07/10 07:26:54;;;;;;;7.78;3.60;;;;;;;26.66;40.54;94815.91;2959193;40;20396;-68
2021/07/10 07:28:56;;;;;;;9.48;3.42;;;;;;;26.69;40.66;94812.72;2957710;40;20076;-69
2021/07/10 07:31:01;;;;;;;6.68;3.05;;;;;;;26.59;40.31;94812.63;2959057;40;20173;-69
2021/07/10 07:33:05;;;;;;;14.38;4.10;;;;;;;26.79;40.60;94812.78;2956743;40;20063;-69
2021/07/10 07:35:10;;;;;;;39.85;5.53;;;;;;;26.96;40.13;94808.06;2965882;40;20132;-70
2021/07/10 07:37:11;;;;;;;8.07;3.20;;;;;;;27.09;39.64;94811.38;2957271;40;20059;-69
2021/07/10 07:39:13;;;;;;;24.38;4.57;;;;;;;27.27;39.73;94808.28;2959556;40;20089;-70
2021/07/10 07:41:15;;;;;;;6.13;3.20;;;;;;;27.37;39.58;94807.53;2959483;40;20060;-68
2021/07/10 07:43:17;;;;;;;7.68;3.65;;;;;;;27.50;38.61;94812.41;2953883;40;20069;-69
2021/07/10 07:45:20;;;;;;;8.25;3.13;;;;;;;27.54;38.51;94807.34;2957172;40;20052;-71
2021/07/10 07:47:22;;;;;;;15.80;3.78;;;;;;;27.65;38.55;94798.22;2958586;40;20318;-70
2021/07/10 07:49:24;;;;;;;6.20;2.88;;;;;;;27.55;39.49;94809.78;2964478;40;20059;-69
2021/07/10 07:51:26;;;;;;;6.03;2.85;;;;;;;27.34;39.21;94808.03;2961930;40;20132;-70
2021/07/10 07:53:27;;;;;;;12.43;3.35;;;;;;;27.43;39.17;94806.47;2967283;40;20070;-70
2021/07/10 07:55:29;;;;;;;11.02;3.75;;;;;;;27.51;39.18;94805.97;2967640;40;20053;-69
2021/07/10 07:57:32;;;;;;;6.20;3.20;;;;;;;27.58;39.02;94801.16;2955194;40;20108;-69
2021/07/10 07:59:34;;;;;;;16.20;3.10;;;;;;;27.46;39.10;94805.94;2967244;40;20049;-69
2021/07/10 08:01:35;;;;;;;7.72;3.17;;;;;;;27.56;39.16;94799.81;2965074;40;20511;-69
2021/07/10 08:03:38;;;;;;;6.18;3.15;;;;;;;27.73;38.53;94799.59;2967151;40;20063;-69
2021/07/10 08:05:39;;;;;;;6.25;3.03;;;;;;;27.91;38.92;94791.06;2967048;40;20407;-68
2021/07/10 08:07:41;;;;;;;9.20;3.80;;;;;;;28.06;37.95;94800.25;2964835;40;20064;-70
2021/07/10 08:09:44;;;;;;;12.65;4.10;;;;;;;28.17;38.31;94807.28;2967410;40;20137;-70
2021/07/10 08:11:46;;;;;;;6.05;2.65;;;;;;;28.19;38.37;94800.53;2967216;40;20389;-70
2021/07/10 08:13:48;;;;;;;13.60;3.25;;;;;;;28.15;38.10;94796.75;2967750;40;20176;-70
2021/07/10 08:15:50;;;;;;;20.00;4.15;;;;;;;27.86;37.97;94795.63;2967698;40;20125;-68
2021/07/10 08:17:52;;;;;;;15.43;3.55;;;;;;;27.68;38.99;94791.50;2966789;40;20157;-70
2021/07/10 08:19:55;;;;;;;22.23;5.00;;;;;;;27.87;38.55;94794.56;2967025;40;20510;-69
2021/07/10 08:21:57;;;;;;;17.48;4.07;;;;;;;27.98;38.28;94790.81;2966811;40;20145;-70
2021/07/10 08:24:00;;;;;;;11.05;3.35;;;;;;;27.54;38.60;94792.00;2966976;40;20053;-69
2021/07/10 08:26:01;;;;;;;5.53;3.15;;;;;;;27.76;38.71;94789.09;2957083;40;20056;-69
2021/07/10 08:28:04;;;;;;;7.72;3.13;;;;;;;27.92;39.13;94783.78;2972307;40;20529;-70
2021/07/10 08:30:07;;;;;;;6.88;3.72;;;;;;;27.91;38.70;94777.59;2967404;40;20068;-70
2021/07/10 08:32:09;;;;;;;7.57;3.13;;;;;;;28.04;39.10;94788.94;2964775;40;20052;-84
2021/07/10 08:34:10;;;;;;;8.35;3.47;;;;;;;27.98;38.59;94788.09;2967370;40;20141;-85
2021/07/10 08:36:12;;;;;;;8.00;4.03;;;;;;;28.09;38.71;94787.06;2967246;40;20052;-85
2021/07/10 08:38:14;;;;;;;21.60;4.43;;;;;;;28.31;38.41;94783.34;2968654;40;20059;-82
2021/07/10 08:40:16;;;;;;;11.90;3.35;;;;;;;28.05;37.69;94777.06;2954149;40;20065;-82
2021/07/10 08:42:18;;;;;;;48.13;6.70;;;;;;;27.62;39.23;94773.72;2958580;40;20129;-84
2021/07/10 08:44:20;;;;;;;31.98;4.95;;;;;;;27.54;38.94;94780.44;2967328;40;20056;-83
2021/07/10 08:46:22;;;;;;;10.95;3.10;;;;;;;27.86;39.39;94777.59;2968405;40;20055;-83
2021/07/10 08:48:25;;;;;;;11.93;4.10;;;;;;;28.03;38.95;94782.75;2958719;40;20045;-84
2021/07/10 08:50:27;;;;;;;6.47;3.42;;;;;;;28.10;38.63;94779.78;2951636;40;20045;-84
2021/07/10 08:52:29;;;;;;;6.70;3.53;;;;;;;28.20;38.13;94787.91;2958910;40;20147;-83
2021/07/10 08:54:32;;;;;;;7.35;2.65;;;;;;;28.11;37.61;94776.00;2951620;40;20112;-83
2021/07/10 08:56:33;;;;;;;9.02;3.75;;;;;;;27.69;38.32;94776.97;2951435;40;20129;-83
2021/07/10 08:58:36;;;;;;;7.20;3.20;;;;;;;27.73;38.82;94786.16;2951650;40;20361;-83
2021/07/10 09:00:41;;;;;;;6.45;3.47;;;;;;;27.84;38.34;94776.22;2951529;40;20052;-84
2021/07/10 09:02:49;;;;;;;4.25;3.15;;;;;;;27.87;38.27;94771.13;2957354;40;20303;-82
2021/07/10 09:04:51;;;;;;;3.90;3.10;;;;;;;28.02;38.21;94781.13;2951405;40;20072;-83
2021/07/10 09:06:53;;;;;;;5.53;3.15;;;;;;;28.30;37.67;94779.00;2951251;40;20143;-85
2021/07/10 09:08:55;;;;;;;4.15;3.05;;;;;;;28.32;38.03;94783.03;2959012;40;20406;-84
2021/07/10 09:11:05;;;;;;;7.75;3.30;;;;;;;28.32;37.86;94780.34;2959270;40;20217;-83
2021/07/10 09:13:08;;;;;;;4.75;3.22;;;;;;;28.29;37.87;94780.91;2944972;40;20079;-85
2021/07/10 09:15:17;;;;;;;10.85;3.28;;;;;;;28.43;37.49;94775.78;2953492;40;20096;-82
2021/07/10 09:17:26;;;;;;;11.18;3.78;;;;;;;28.67;37.07;94769.88;2959433;40;20083;-82
2021/07/10 09:19:27;;;;;;;8.98;3.22;;;;;;;28.72;37.51;94775.28;2958840;40;20053;-82
2021/07/10 09:21:39;;;;;;;15.50;4.35;;;;;;;28.41;37.74;94771.72;2949997;40;20486;-83
2021/07/10 09:23:44;;;;;;;8.63;3.83;;;;;;;27.95;38.82;94770.59;2950499;40;20101;-84
2021/07/10 09:25:46;;;;;;;6.93;3.53;;;;;;;27.98;38.99;94774.66;2959011;40;20057;-83
2021/07/10 09:27:49;;;;;;;11.27;3.67;;;;;;;28.24;37.95;94772.78;2957596;40;20482;-83
2021/07/10 09:29:52;;;;;;;8.70;3.45;;;;;;;28.45;37.82;94772.81;2958000;40;20413;-84
2021/07/10 09:31:56;;;;;;;10.27;3.58;;;;;;;28.57;37.30;94768.00;2955016;40;20089;-83
2021/07/10 09:34:07;;;;;;;13.45;4.43;;;;;;;28.72;38.16;94767.97;2962876;40;20157;-84